sensor_id;sensor_type;location;lat;lon;timestamp;pressure;altitude;pressure_sealevel;temperature;humidity
35716;BME280;21840;44.920;8.616;2023-04-27T00:01:10;100314.34;;;17.00;40.94
35716;BME280;21840;44.920;8.616;2023-04-27T00:03:36;100312.31;;;16.79;41.13
35716;BME280;21840;44.920;8.616;2023-04-27T00:06:01;100318.41;;;16.88;40.68
35716;BME280;21840;44.920;8.616;2023-04-27T00:08:27;100324.38;;;17.04;40.26
35716;BME280;21840;44.920;8.616;2023-04-27T00:10:53;100321.13;;;17.02;40.02
35716;BME280;21840;44.920;8.616;2023-04-27T00:13:18;100321.59;;;16.83;40.58
35716;BME280;21840;44.920;8.616;2023-04-27T00:15:43;100325.81;;;16.92;40.68
35716;BME280;21840;44.920;8.616;2023-04-27T00:18:09;100323.94;;;17.01;40.75
35716;BME280;21840;44.920;8.616;2023-04-27T00:20:35;100317.78;;;16.77;40.99
35716;BME280;21840;44.920;8.616;2023-04-27T00:23:00;100319.38;;;17.10;40.69
35716;BME280;21840;44.920;8.616;2023-04-27T00:25:26;100324.56;;;17.26;40.20
35716;BME280;21840;44.920;8.616;2023-04-27T00:27:51;100309.09;;;17.15;40.42
35716;BME280;21840;44.920;8.616;2023-04-27T00:30:16;100306.94;;;16.87;41.14
35716;BME280;21840;44.920;8.616;2023-04-27T00:32:42;100310.84;;;17.22;40.75
35716;BME280;21840;44.920;8.616;2023-04-27T00:35:07;100308.81;;;17.24;40.80
35716;BME280;21840;44.920;8.616;2023-04-27T00:37:33;100305.94;;;17.11;41.02
35716;BME280;21840;44.920;8.616;2023-04-27T00:39:58;100314.09;;;17.24;40.96
35716;BME280;21840;44.920;8.616;2023-04-27T00:42:23;100303.03;;;17.21;40.97
35716;BME280;21840;44.920;8.616;2023-04-27T00:44:49;100301.22;;;17.21;40.89
35716;BME280;21840;44.920;8.616;2023-04-27T00:47:15;100314.03;;;17.18;41.36
35716;BME280;21840;44.920;8.616;2023-04-27T00:49:41;100311.63;;;17.08;41.61
35716;BME280;21840;44.920;8.616;2023-04-27T00:52:06;100305.03;;;16.81;41.50
35716;BME280;21840;44.920;8.616;2023-04-27T00:54:32;100301.03;;;16.54;41.58
35716;BME280;21840;44.920;8.616;2023-04-27T00:56:57;100307.06;;;16.71;40.25
35716;BME280;21840;44.920;8.616;2023-04-27T00:59:23;100312.56;;;16.61;40.17
35716;BME280;21840;44.920;8.616;2023-04-27T01:01:50;100309.03;;;16.69;40.28
35716;BME280;21840;44.920;8.616;2023-04-27T01:04:17;100309.13;;;16.52;40.76
35716;BME280;21840;44.920;8.616;2023-04-27T01:06:43;100305.81;;;16.58;40.65
35716;BME280;21840;44.920;8.616;2023-04-27T01:09:08;100311.09;;;16.58;40.76
35716;BME280;21840;44.920;8.616;2023-04-27T01:11:37;100309.72;;;16.39;41.10
35716;BME280;21840;44.920;8.616;2023-04-27T01:14:05;100305.88;;;16.42;41.41
35716;BME280;21840;44.920;8.616;2023-04-27T01:16:31;100307.19;;;16.46;40.70
35716;BME280;21840;44.920;8.616;2023-04-27T01:18:56;100308.16;;;16.53;40.52
35716;BME280;21840;44.920;8.616;2023-04-27T01:21:22;100300.28;;;16.37;40.78
35716;BME280;21840;44.920;8.616;2023-04-27T01:23:48;100300.84;;;15.93;41.74
35716;BME280;21840;44.920;8.616;2023-04-27T01:26:13;100305.50;;;15.66;42.11
35716;BME280;21840;44.920;8.616;2023-04-27T01:28:41;100311.44;;;15.85;41.72
35716;BME280;21840;44.920;8.616;2023-04-27T01:31:06;100317.03;;;15.90;41.64
35716;BME280;21840;44.920;8.616;2023-04-27T01:33:31;100310.44;;;15.86;41.56
35716;BME280;21840;44.920;8.616;2023-04-27T01:35:56;100309.34;;;15.47;42.26
35716;BME280;21840;44.920;8.616;2023-04-27T01:38:22;100310.88;;;15.25;42.44
35716;BME280;21840;44.920;8.616;2023-04-27T01:40:48;100310.53;;;15.28;42.47
35716;BME280;21840;44.920;8.616;2023-04-27T01:43:14;100322.25;;;15.42;42.34
35716;BME280;21840;44.920;8.616;2023-04-27T01:45:39;100322.09;;;15.44;42.45
35716;BME280;21840;44.920;8.616;2023-04-27T01:48:04;100318.63;;;15.27;42.48
35716;BME280;21840;44.920;8.616;2023-04-27T01:50:30;100330.53;;;14.98;42.80
35716;BME280;21840;44.920;8.616;2023-04-27T01:52:55;100329.88;;;15.21;42.31
35716;BME280;21840;44.920;8.616;2023-04-27T01:55:21;100341.28;;;15.21;42.22
35716;BME280;21840;44.920;8.616;2023-04-27T01:57:46;100337.31;;;15.09;42.06
35716;BME280;21840;44.920;8.616;2023-04-27T02:00:12;100333.50;;;15.12;41.80
35716;BME280;21840;44.920;8.616;2023-04-27T02:02:46;100339.47;;;15.22;41.65
35716;BME280;21840;44.920;8.616;2023-04-27T02:05:12;100345.06;;;15.02;42.07
35716;BME280;21840;44.920;8.616;2023-04-27T02:07:37;100343.56;;;14.75;42.65
35716;BME280;21840;44.920;8.616;2023-04-27T02:10:03;100341.88;;;14.66;42.63
35716;BME280;21840;44.920;8.616;2023-04-27T02:12:28;100339.50;;;14.46;43.13
35716;BME280;21840;44.920;8.616;2023-04-27T02:14:54;100337.50;;;14.40;43.18
35716;BME280;21840;44.920;8.616;2023-04-27T02:17:19;100338.78;;;14.36;43.59
35716;BME280;21840;44.920;8.616;2023-04-27T02:19:45;100340.50;;;14.45;43.72
35716;BME280;21840;44.920;8.616;2023-04-27T02:22:10;100354.19;;;14.41;43.88
35716;BME280;21840;44.920;8.616;2023-04-27T02:24:35;100341.22;;;14.56;43.64
35716;BME280;21840;44.920;8.616;2023-04-27T02:27:01;100354.09;;;14.67;43.37
35716;BME280;21840;44.920;8.616;2023-04-27T02:29:30;100353.41;;;14.57;43.54
35716;BME280;21840;44.920;8.616;2023-04-27T02:31:56;100358.47;;;14.50;43.42
35716;BME280;21840;44.920;8.616;2023-04-27T02:34:21;100361.53;;;14.55;43.39
35716;BME280;21840;44.920;8.616;2023-04-27T02:36:46;100359.03;;;14.54;43.55
35716;BME280;21840;44.920;8.616;2023-04-27T02:39:12;100363.28;;;14.46;43.93
35716;BME280;21840;44.920;8.616;2023-04-27T02:41:37;100367.66;;;14.72;43.32
35716;BME280;21840;44.920;8.616;2023-04-27T02:44:02;100366.75;;;14.98;42.99
35716;BME280;21840;44.920;8.616;2023-04-27T02:46:29;100361.13;;;15.01;42.80
35716;BME280;21840;44.920;8.616;2023-04-27T02:48:55;100363.44;;;15.12;42.85
35716;BME280;21840;44.920;8.616;2023-04-27T02:51:21;100357.31;;;15.12;42.92
35716;BME280;21840;44.920;8.616;2023-04-27T02:53:47;100362.28;;;15.06;43.62
35716;BME280;21840;44.920;8.616;2023-04-27T02:56:12;100368.72;;;14.96;44.11
35716;BME280;21840;44.920;8.616;2023-04-27T02:58:38;100378.63;;;15.02;43.95
35716;BME280;21840;44.920;8.616;2023-04-27T03:01:03;100378.97;;;14.99;44.15
35716;BME280;21840;44.920;8.616;2023-04-27T03:03:29;100390.34;;;14.99;44.12
35716;BME280;21840;44.920;8.616;2023-04-27T03:05:54;100385.56;;;14.95;44.51
35716;BME280;21840;44.920;8.616;2023-04-27T03:08:20;100386.41;;;15.03;44.42
35716;BME280;21840;44.920;8.616;2023-04-27T03:10:45;100383.63;;;15.13;44.08
35716;BME280;21840;44.920;8.616;2023-04-27T03:13:10;100379.63;;;15.17;43.98
35716;BME280;21840;44.920;8.616;2023-04-27T03:15:36;100377.50;;;15.21;44.08
35716;BME280;21840;44.920;8.616;2023-04-27T03:18:01;100380.97;;;15.29;44.05
35716;BME280;21840;44.920;8.616;2023-04-27T03:20:26;100380.28;;;15.27;44.12
35716;BME280;21840;44.920;8.616;2023-04-27T03:22:52;100387.91;;;15.14;44.29
35716;BME280;21840;44.920;8.616;2023-04-27T03:25:17;100392.22;;;15.23;44.46
35716;BME280;21840;44.920;8.616;2023-04-27T03:27:43;100388.41;;;15.18;44.76
35716;BME280;21840;44.920;8.616;2023-04-27T03:30:10;100383.91;;;15.02;45.23
35716;BME280;21840;44.920;8.616;2023-04-27T03:32:36;100382.94;;;15.11;45.05
35716;BME280;21840;44.920;8.616;2023-04-27T03:35:01;100380.97;;;15.13;44.79
35716;BME280;21840;44.920;8.616;2023-04-27T03:37:27;100392.34;;;14.97;45.06
35716;BME280;21840;44.920;8.616;2023-04-27T03:39:55;100387.56;;;15.01;45.09
35716;BME280;21840;44.920;8.616;2023-04-27T03:42:20;100386.59;;;15.26;44.54
35716;BME280;21840;44.920;8.616;2023-04-27T03:44:46;100393.88;;;15.41;44.33
35716;BME280;21840;44.920;8.616;2023-04-27T03:47:11;100403.81;;;15.30;44.46
35716;BME280;21840;44.920;8.616;2023-04-27T03:49:38;100403.31;;;15.35;44.36
35716;BME280;21840;44.920;8.616;2023-04-27T03:52:04;100402.81;;;15.23;44.55
35716;BME280;21840;44.920;8.616;2023-04-27T03:54:30;100398.09;;;14.76;45.50
35716;BME280;21840;44.920;8.616;2023-04-27T03:56:56;100407.50;;;14.71;45.05
35716;BME280;21840;44.920;8.616;2023-04-27T03:59:22;100407.78;;;14.67;44.59
35716;BME280;21840;44.920;8.616;2023-04-27T04:01:48;100412.22;;;14.24;45.13
35716;BME280;21840;44.920;8.616;2023-04-27T04:04:13;100424.81;;;14.31;44.98
35716;BME280;21840;44.920;8.616;2023-04-27T04:06:40;100425.84;;;14.12;45.07
35716;BME280;21840;44.920;8.616;2023-04-27T04:09:06;100430.72;;;13.98;44.98
35716;BME280;21840;44.920;8.616;2023-04-27T04:11:31;100435.94;;;13.46;46.04
35716;BME280;21840;44.920;8.616;2023-04-27T04:13:58;100432.09;;;13.41;45.94
35716;BME280;21840;44.920;8.616;2023-04-27T04:16:23;100428.78;;;13.38;45.91
35716;BME280;21840;44.920;8.616;2023-04-27T04:18:51;100435.78;;;13.30;46.22
35716;BME280;21840;44.920;8.616;2023-04-27T04:21:16;100439.78;;;13.34;46.90
35716;BME280;21840;44.920;8.616;2023-04-27T04:23:42;100438.19;;;13.41;46.67
35716;BME280;21840;44.920;8.616;2023-04-27T04:26:07;100442.94;;;13.55;46.32
35716;BME280;21840;44.920;8.616;2023-04-27T04:28:34;100445.66;;;13.64;46.15
35716;BME280;21840;44.920;8.616;2023-04-27T04:31:00;100454.63;;;13.53;46.48
35716;BME280;21840;44.920;8.616;2023-04-27T04:33:25;100452.81;;;13.53;46.31
35716;BME280;21840;44.920;8.616;2023-04-27T04:35:54;100452.13;;;13.51;46.22
35716;BME280;21840;44.920;8.616;2023-04-27T04:38:19;100458.25;;;13.34;46.43
35716;BME280;21840;44.920;8.616;2023-04-27T04:40:45;100461.31;;;13.29;46.80
35716;BME280;21840;44.920;8.616;2023-04-27T04:43:10;100463.13;;;13.29;46.31
35716;BME280;21840;44.920;8.616;2023-04-27T04:45:36;100461.78;;;13.43;46.03
35716;BME280;21840;44.920;8.616;2023-04-27T04:48:01;100468.66;;;13.35;46.21
35716;BME280;21840;44.920;8.616;2023-04-27T04:50:27;100456.75;;;13.04;47.19
35716;BME280;21840;44.920;8.616;2023-04-27T04:52:53;100469.63;;;13.34;46.55
35716;BME280;21840;44.920;8.616;2023-04-27T04:55:18;100464.47;;;13.69;45.68
35716;BME280;21840;44.920;8.616;2023-04-27T04:57:44;100474.19;;;13.86;45.43
35716;BME280;21840;44.920;8.616;2023-04-27T05:00:09;100475.38;;;13.92;45.34
35716;BME280;21840;44.920;8.616;2023-04-27T05:02:38;100472.31;;;13.78;45.32
35716;BME280;21840;44.920;8.616;2023-04-27T05:05:04;100479.97;;;13.90;45.37
35716;BME280;21840;44.920;8.616;2023-04-27T05:07:29;100479.41;;;14.30;44.85
35716;BME280;21840;44.920;8.616;2023-04-27T05:09:55;100483.38;;;13.82;45.76
35716;BME280;21840;44.920;8.616;2023-04-27T05:12:20;100497.81;;;14.40;44.56
35716;BME280;21840;44.920;8.616;2023-04-27T05:14:46;100494.09;;;14.24;45.06
35716;BME280;21840;44.920;8.616;2023-04-27T05:17:12;100491.03;;;14.37;45.03
35716;BME280;21840;44.920;8.616;2023-04-27T05:19:37;100498.66;;;14.40;45.14
35716;BME280;21840;44.920;8.616;2023-04-27T05:22:03;100503.34;;;14.81;44.15
35716;BME280;21840;44.920;8.616;2023-04-27T05:24:32;100503.44;;;14.63;44.28
35716;BME280;21840;44.920;8.616;2023-04-27T05:26:58;100505.94;;;14.46;44.59
35716;BME280;21840;44.920;8.616;2023-04-27T05:29:23;100504.16;;;14.81;44.11
35716;BME280;21840;44.920;8.616;2023-04-27T05:31:49;100510.59;;;14.79;44.10
35716;BME280;21840;44.920;8.616;2023-04-27T05:34:14;100511.75;;;14.76;44.29
35716;BME280;21840;44.920;8.616;2023-04-27T05:36:40;100511.84;;;15.01;43.30
35716;BME280;21840;44.920;8.616;2023-04-27T05:39:05;100515.56;;;15.24;42.94
35716;BME280;21840;44.920;8.616;2023-04-27T05:41:31;100516.69;;;15.22;42.54
35716;BME280;21840;44.920;8.616;2023-04-27T05:43:57;100521.66;;;15.25;42.48
35716;BME280;21840;44.920;8.616;2023-04-27T05:46:22;100514.72;;;15.24;42.62
35716;BME280;21840;44.920;8.616;2023-04-27T05:48:48;100521.44;;;15.10;43.00
35716;BME280;21840;44.920;8.616;2023-04-27T05:51:14;100518.25;;;15.49;42.23
35716;BME280;21840;44.920;8.616;2023-04-27T05:53:39;100525.69;;;15.45;42.25
35716;BME280;21840;44.920;8.616;2023-04-27T05:56:05;100531.81;;;15.38;42.65
35716;BME280;21840;44.920;8.616;2023-04-27T05:58:31;100528.88;;;15.65;42.33
35716;BME280;21840;44.920;8.616;2023-04-27T06:00:57;100527.06;;;15.58;42.40
35716;BME280;21840;44.920;8.616;2023-04-27T06:03:22;100535.06;;;15.90;41.85
35716;BME280;21840;44.920;8.616;2023-04-27T06:05:52;100528.25;;;15.80;41.87
35716;BME280;21840;44.920;8.616;2023-04-27T06:08:18;100539.91;;;15.44;42.88
35716;BME280;21840;44.920;8.616;2023-04-27T06:10:43;100542.31;;;15.88;42.12
35716;BME280;21840;44.920;8.616;2023-04-27T06:13:08;100538.50;;;15.74;42.66
35716;BME280;21840;44.920;8.616;2023-04-27T06:15:34;100542.31;;;15.96;42.03
35716;BME280;21840;44.920;8.616;2023-04-27T06:17:59;100547.78;;;16.20;41.74
35716;BME280;21840;44.920;8.616;2023-04-27T06:20:24;100544.97;;;15.80;42.09
35716;BME280;21840;44.920;8.616;2023-04-27T06:22:49;100548.44;;;15.81;42.18
35716;BME280;21840;44.920;8.616;2023-04-27T06:25:18;100558.06;;;16.06;41.91
35716;BME280;21840;44.920;8.616;2023-04-27T06:27:43;100558.19;;;16.29;41.52
35716;BME280;21840;44.920;8.616;2023-04-27T06:30:08;100556.38;;;16.22;41.85
35716;BME280;21840;44.920;8.616;2023-04-27T06:32:34;100555.53;;;16.46;41.49
35716;BME280;21840;44.920;8.616;2023-04-27T06:34:59;100550.66;;;16.82;41.13
35716;BME280;21840;44.920;8.616;2023-04-27T06:37:25;100558.91;;;16.95;40.79
35716;BME280;21840;44.920;8.616;2023-04-27T06:39:50;100554.53;;;17.11;40.66
35716;BME280;21840;44.920;8.616;2023-04-27T06:42:15;100554.34;;;17.20;40.31
35716;BME280;21840;44.920;8.616;2023-04-27T06:44:41;100560.25;;;17.31;40.18
35716;BME280;21840;44.920;8.616;2023-04-27T06:47:06;100554.72;;;17.40;40.10
35716;BME280;21840;44.920;8.616;2023-04-27T06:49:31;100553.41;;;17.36;40.21
35716;BME280;21840;44.920;8.616;2023-04-27T06:51:57;100558.50;;;17.46;40.35
35716;BME280;21840;44.920;8.616;2023-04-27T06:54:22;100562.84;;;17.70;40.07
35716;BME280;21840;44.920;8.616;2023-04-27T06:56:47;100562.13;;;17.76;39.99
35716;BME280;21840;44.920;8.616;2023-04-27T06:59:13;100568.78;;;17.80;39.99
35716;BME280;21840;44.920;8.616;2023-04-27T07:01:38;100552.91;;;17.64;40.70
35716;BME280;21840;44.920;8.616;2023-04-27T07:04:03;100562.34;;;17.66;40.95
35716;BME280;21840;44.920;8.616;2023-04-27T07:06:29;100563.44;;;18.03;40.20
35716;BME280;21840;44.920;8.616;2023-04-27T07:08:55;100566.31;;;18.40;39.49
35716;BME280;21840;44.920;8.616;2023-04-27T07:11:20;100563.84;;;18.53;39.46
35716;BME280;21840;44.920;8.616;2023-04-27T07:13:45;100567.03;;;18.48;39.45
35716;BME280;21840;44.920;8.616;2023-04-27T07:16:11;100568.22;;;18.46;39.74
35716;BME280;21840;44.920;8.616;2023-04-27T07:18:36;100572.66;;;18.68;39.63
35716;BME280;21840;44.920;8.616;2023-04-27T07:21:02;100575.56;;;18.59;40.00
35716;BME280;21840;44.920;8.616;2023-04-27T07:23:27;100574.56;;;18.60;40.12
35716;BME280;21840;44.920;8.616;2023-04-27T07:25:52;100568.97;;;18.69;40.04
35716;BME280;21840;44.920;8.616;2023-04-27T07:28:18;100573.38;;;18.62;40.52
35716;BME280;21840;44.920;8.616;2023-04-27T07:30:43;100575.34;;;18.83;40.35
35716;BME280;21840;44.920;8.616;2023-04-27T07:33:09;100576.53;;;18.81;40.44
35716;BME280;21840;44.920;8.616;2023-04-27T07:35:34;100579.03;;;18.97;40.11
35716;BME280;21840;44.920;8.616;2023-04-27T07:38:00;100578.09;;;18.90;40.48
35716;BME280;21840;44.920;8.616;2023-04-27T07:40:28;100576.63;;;19.02;40.30
35716;BME280;21840;44.920;8.616;2023-04-27T07:42:53;100577.09;;;18.91;40.40
35716;BME280;21840;44.920;8.616;2023-04-27T07:45:19;100577.53;;;18.94;40.46
35716;BME280;21840;44.920;8.616;2023-04-27T07:47:44;100580.28;;;19.01;40.43
35716;BME280;21840;44.920;8.616;2023-04-27T07:50:10;100583.50;;;19.11;40.25
35716;BME280;21840;44.920;8.616;2023-04-27T07:52:38;100591.47;;;19.26;40.15
35716;BME280;21840;44.920;8.616;2023-04-27T07:55:03;100595.59;;;19.29;40.24
35716;BME280;21840;44.920;8.616;2023-04-27T07:57:29;100592.22;;;19.56;39.74
35716;BME280;21840;44.920;8.616;2023-04-27T07:59:55;100597.28;;;19.51;40.00
35716;BME280;21840;44.920;8.616;2023-04-27T08:02:21;100600.94;;;19.65;39.77
35716;BME280;21840;44.920;8.616;2023-04-27T08:04:46;100606.56;;;19.70;39.58
35716;BME280;21840;44.920;8.616;2023-04-27T08:07:14;100603.06;;;19.91;39.26
35716;BME280;21840;44.920;8.616;2023-04-27T08:09:39;100612.09;;;19.90;39.13
35716;BME280;21840;44.920;8.616;2023-04-27T08:12:04;100612.84;;;19.84;38.34
35716;BME280;21840;44.920;8.616;2023-04-27T08:14:30;100607.97;;;19.88;38.47
35716;BME280;21840;44.920;8.616;2023-04-27T08:16:57;100601.84;;;19.94;38.15
35716;BME280;21840;44.920;8.616;2023-04-27T08:19:23;100602.75;;;20.01;37.69
35716;BME280;21840;44.920;8.616;2023-04-27T08:21:48;100594.28;;;20.19;37.24
35716;BME280;21840;44.920;8.616;2023-04-27T08:24:13;100605.03;;;20.54;36.71
35716;BME280;21840;44.920;8.616;2023-04-27T08:26:39;100603.66;;;20.36;37.16
35716;BME280;21840;44.920;8.616;2023-04-27T08:29:05;100608.75;;;20.81;36.77
35716;BME280;21840;44.920;8.616;2023-04-27T08:31:30;100610.94;;;20.71;36.89
35716;BME280;21840;44.920;8.616;2023-04-27T08:33:56;100604.78;;;20.70;37.13
35716;BME280;21840;44.920;8.616;2023-04-27T08:36:22;100608.50;;;20.54;37.32
35716;BME280;21840;44.920;8.616;2023-04-27T08:38:52;100601.66;;;20.95;36.94
35716;BME280;21840;44.920;8.616;2023-04-27T08:41:18;100611.97;;;21.11;36.47
35716;BME280;21840;44.920;8.616;2023-04-27T08:43:43;100612.44;;;20.80;36.71
35716;BME280;21840;44.920;8.616;2023-04-27T08:46:09;100610.75;;;21.14;36.18
35716;BME280;21840;44.920;8.616;2023-04-27T08:48:35;100612.53;;;21.35;35.94
35716;BME280;21840;44.920;8.616;2023-04-27T08:51:00;100610.75;;;21.55;36.09
35716;BME280;21840;44.920;8.616;2023-04-27T08:53:26;100618.16;;;21.53;35.84
35716;BME280;21840;44.920;8.616;2023-04-27T08:55:52;100615.91;;;21.57;35.82
35716;BME280;21840;44.920;8.616;2023-04-27T08:58:19;100611.41;;;21.70;35.48
35716;BME280;21840;44.920;8.616;2023-04-27T09:00:44;100618.38;;;21.58;35.10
35716;BME280;21840;44.920;8.616;2023-04-27T09:03:26;100615.31;;;21.68;35.25
35716;BME280;21840;44.920;8.616;2023-04-27T09:05:51;100603.88;;;22.01;34.65
35716;BME280;21840;44.920;8.616;2023-04-27T09:08:17;100597.50;;;22.02;34.79
35716;BME280;21840;44.920;8.616;2023-04-27T09:10:43;100598.72;;;22.06;34.81
35716;BME280;21840;44.920;8.616;2023-04-27T09:13:09;100599.56;;;22.13;34.73
35716;BME280;21840;44.920;8.616;2023-04-27T09:15:40;100597.53;;;22.35;34.51
35716;BME280;21840;44.920;8.616;2023-04-27T09:18:16;100599.19;;;22.49;34.78
35716;BME280;21840;44.920;8.616;2023-04-27T09:20:42;100595.88;;;22.60;34.43
35716;BME280;21840;44.920;8.616;2023-04-27T09:23:08;100587.59;;;22.69;34.31
35716;BME280;21840;44.920;8.616;2023-04-27T09:25:33;100587.59;;;22.75;34.22
35716;BME280;21840;44.920;8.616;2023-04-27T09:27:59;100585.56;;;22.64;34.63
35716;BME280;21840;44.920;8.616;2023-04-27T09:30:25;100580.63;;;22.68;34.53
35716;BME280;21840;44.920;8.616;2023-04-27T09:32:51;100587.59;;;22.69;34.87
35716;BME280;21840;44.920;8.616;2023-04-27T09:35:21;100585.75;;;22.76;33.71
35716;BME280;21840;44.920;8.616;2023-04-27T09:37:48;100591.47;;;22.86;32.94
35716;BME280;21840;44.920;8.616;2023-04-27T09:40:13;100594.53;;;22.96;33.05
35716;BME280;21840;44.920;8.616;2023-04-27T09:42:39;100583.22;;;23.08;33.01
35716;BME280;21840;44.920;8.616;2023-04-27T09:45:05;100580.88;;;23.24;32.44
35716;BME280;21840;44.920;8.616;2023-04-27T09:47:32;100589.41;;;22.95;32.57
35716;BME280;21840;44.920;8.616;2023-04-27T09:49:58;100578.50;;;22.90;32.45
35716;BME280;21840;44.920;8.616;2023-04-27T09:52:23;100573.97;;;22.90;32.74
35716;BME280;21840;44.920;8.616;2023-04-27T09:54:50;100566.53;;;22.92;32.06
35716;BME280;21840;44.920;8.616;2023-04-27T10:00:19;100567.16;;;22.94;32.06
35716;BME280;21840;44.920;8.616;2023-04-27T10:02:41;100562.03;;;22.99;31.21
35716;BME280;21840;44.920;8.616;2023-04-27T10:05:15;100562.78;;;23.13;31.88
35716;BME280;21840;44.920;8.616;2023-04-27T10:07:44;100562.75;;;23.27;32.77
35716;BME280;21840;44.920;8.616;2023-04-27T10:10:14;100550.31;;;23.39;32.58
35716;BME280;21840;44.920;8.616;2023-04-27T10:12:41;100552.84;;;23.27;29.38
35716;BME280;21840;44.920;8.616;2023-04-27T10:15:13;100550.44;;;23.06;28.89
35716;BME280;21840;44.920;8.616;2023-04-27T10:17:45;100543.38;;;23.24;29.03
35716;BME280;21840;44.920;8.616;2023-04-27T10:20:11;100541.56;;;23.50;28.77
35716;BME280;21840;44.920;8.616;2023-04-27T10:22:37;100543.75;;;23.28;29.22
35716;BME280;21840;44.920;8.616;2023-04-27T10:25:11;100537.38;;;23.29;28.01
35716;BME280;21840;44.920;8.616;2023-04-27T10:27:37;100533.00;;;23.73;28.77
35716;BME280;21840;44.920;8.616;2023-04-27T10:30:07;100536.50;;;23.74;29.79
35716;BME280;21840;44.920;8.616;2023-04-27T10:32:32;100533.78;;;24.05;29.78
35716;BME280;21840;44.920;8.616;2023-04-27T10:35:01;100533.03;;;24.42;29.29
35716;BME280;21840;44.920;8.616;2023-04-27T10:37:37;100530.09;;;24.50;29.37
35716;BME280;21840;44.920;8.616;2023-04-27T10:40:03;100522.00;;;24.31;29.46
35716;BME280;21840;44.920;8.616;2023-04-27T10:42:31;100530.69;;;24.27;29.25
35716;BME280;21840;44.920;8.616;2023-04-27T10:44:56;100531.31;;;24.29;29.49
35716;BME280;21840;44.920;8.616;2023-04-27T10:47:22;100536.72;;;24.22;28.35
35716;BME280;21840;44.920;8.616;2023-04-27T10:49:51;100538.16;;;24.00;29.07
35716;BME280;21840;44.920;8.616;2023-04-27T10:52:16;100534.66;;;24.24;28.93
35716;BME280;21840;44.920;8.616;2023-04-27T10:54:44;100531.06;;;24.30;28.96
35716;BME280;21840;44.920;8.616;2023-04-27T10:57:12;100537.78;;;24.21;28.75
35716;BME280;21840;44.920;8.616;2023-04-27T10:59:47;100539.78;;;24.26;28.75
35716;BME280;21840;44.920;8.616;2023-04-27T11:02:14;100543.00;;;24.35;28.83
35716;BME280;21840;44.920;8.616;2023-04-27T11:04:39;100526.53;;;24.06;28.71
35716;BME280;21840;44.920;8.616;2023-04-27T11:07:06;100533.31;;;24.33;28.48
35716;BME280;21840;44.920;8.616;2023-04-27T11:09:33;100526.91;;;24.35;28.61
35716;BME280;21840;44.920;8.616;2023-04-27T11:11:59;100514.25;;;24.79;28.20
35716;BME280;21840;44.920;8.616;2023-04-27T11:14:24;100514.31;;;25.09;27.82
35716;BME280;21840;44.920;8.616;2023-04-27T11:16:50;100512.94;;;25.36;27.27
35716;BME280;21840;44.920;8.616;2023-04-27T11:19:15;100512.19;;;25.59;26.78
35716;BME280;21840;44.920;8.616;2023-04-27T11:21:40;100507.56;;;25.48;26.57
35716;BME280;21840;44.920;8.616;2023-04-27T11:24:06;100515.47;;;25.73;26.36
35716;BME280;21840;44.920;8.616;2023-04-27T11:26:32;100505.91;;;25.35;26.88
35716;BME280;21840;44.920;8.616;2023-04-27T11:29:01;100501.63;;;25.46;26.21
35716;BME280;21840;44.920;8.616;2023-04-27T11:31:42;100490.78;;;25.65;25.74
35716;BME280;21840;44.920;8.616;2023-04-27T11:34:08;100497.28;;;25.45;26.22
35716;BME280;21840;44.920;8.616;2023-04-27T11:36:34;100514.38;;;25.51;25.55
35716;BME280;21840;44.920;8.616;2023-04-27T11:39:00;100511.28;;;25.77;25.35
35716;BME280;21840;44.920;8.616;2023-04-27T11:41:32;100510.19;;;26.09;25.52
35716;BME280;21840;44.920;8.616;2023-04-27T11:44:02;100496.59;;;26.03;25.45
35716;BME280;21840;44.920;8.616;2023-04-27T11:46:28;100494.13;;;26.02;25.55
35716;BME280;21840;44.920;8.616;2023-04-27T11:49:00;100493.66;;;26.05;25.57
35716;BME280;21840;44.920;8.616;2023-04-27T11:51:25;100493.56;;;26.12;25.45
35716;BME280;21840;44.920;8.616;2023-04-27T11:53:50;100493.47;;;25.65;25.66
35716;BME280;21840;44.920;8.616;2023-04-27T11:56:16;100494.25;;;25.53;25.83
35716;BME280;21840;44.920;8.616;2023-04-27T11:58:42;100502.66;;;25.15;26.14
35716;BME280;21840;44.920;8.616;2023-04-27T12:01:08;100493.06;;;25.37;25.75
35716;BME280;21840;44.920;8.616;2023-04-27T12:03:34;100485.94;;;25.43;26.12
35716;BME280;21840;44.920;8.616;2023-04-27T12:06:03;100492.84;;;25.39;25.77
35716;BME280;21840;44.920;8.616;2023-04-27T12:08:28;100491.03;;;25.03;26.58
35716;BME280;21840;44.920;8.616;2023-04-27T12:10:53;100496.03;;;25.17;26.23
35716;BME280;21840;44.920;8.616;2023-04-27T12:13:19;100490.63;;;25.48;26.09
35716;BME280;21840;44.920;8.616;2023-04-27T12:15:45;100480.13;;;25.46;25.82
35716;BME280;21840;44.920;8.616;2023-04-27T12:18:10;100476.84;;;25.44;25.67
35716;BME280;21840;44.920;8.616;2023-04-27T12:20:36;100485.31;;;25.71;25.31
35716;BME280;21840;44.920;8.616;2023-04-27T12:23:01;100478.78;;;25.91;25.02
35716;BME280;21840;44.920;8.616;2023-04-27T12:25:26;100475.50;;;25.77;25.15
35716;BME280;21840;44.920;8.616;2023-04-27T12:27:52;100473.59;;;25.66;25.09
35716;BME280;21840;44.920;8.616;2023-04-27T12:30:17;100469.63;;;25.68;25.27
35716;BME280;21840;44.920;8.616;2023-04-27T12:32:42;100472.47;;;25.85;24.75
35716;BME280;21840;44.920;8.616;2023-04-27T12:35:08;100474.94;;;25.87;24.60
35716;BME280;21840;44.920;8.616;2023-04-27T12:37:34;100475.31;;;26.14;24.59
35716;BME280;21840;44.920;8.616;2023-04-27T12:39:59;100479.47;;;26.33;24.26
35716;BME280;21840;44.920;8.616;2023-04-27T12:42:24;100474.97;;;26.74;23.56
35716;BME280;21840;44.920;8.616;2023-04-27T12:44:50;100469.00;;;27.01;22.95
35716;BME280;21840;44.920;8.616;2023-04-27T12:47:16;100468.16;;;27.12;22.84